Terminal Aerodrome Forecast
Issued by NWS

Home | Current Version | Previous Version | Text Only | Print | Product List | Glossary Off
Versions: 1 2 3 4 5 6 7 8 9 10 11 12 13 14 15 16 17 18 19 20 21

428
FTUS43 KTOP 151734
TAFFOE
TAF
KFOE 151734Z 1518/1618 24011KT P6SM FEW250
     FM160200 20007KT P6SM SKC WS015/24040KT
     FM161400 20011KT P6SM SKC=

USA.gov is the U.S. government's official web portal to all federal, state and local government web resources and services.